Flight Track Log - Related Links

Times and Time Zones

All times are in EST time to prevent confusion due to time zone crossing. See the CSH9538 flight status page for this flight to view local times or setup timezone preferences in your user account.

Time Position Orientation Groundspeed Altitude Reporting Facility
EST Latitude Longitude Course Direction KTS MPH feet Rate Location/Type
Tue 09:36:00 AM 18.6618 109.7168 39° Northeast  Level Estimated
Tue 09:37:00 AM 18.7515 109.7931 39° Northeast  Level Estimated
Tue 09:38:00 AM 18.8411 109.8695 39° Northeast  Level Estimated
Tue 09:39:00 AM 18.9301 109.9454 39° Northeast  Level Estimated
Tue 09:40:00 AM 19.0191 110.0215 39° Northeast  Level Estimated
Tue 09:41:00 AM 19.1080 110.0976 39° Northeast  Level Estimated
Tue 09:42:00 AM 19.1970 110.1739 39° Northeast  Level Estimated
Tue 09:43:00 AM 19.2858 110.2502 39° Northeast  Level Estimated
Tue 09:44:00 AM 19.3747 110.3265 39° Northeast  Level Estimated
Tue 09:45:00 AM 19.4635 110.4030 39° Northeast  Level Estimated
Tue 09:46:00 AM 19.5522 110.4795 39° Northeast  Level Estimated
Tue 09:47:00 AM 19.6410 110.5562 39° Northeast  Level Estimated
Tue 09:48:00 AM 19.7297 110.6329 39° Northeast  Level Estimated
Tue 09:49:00 AM 19.8184 110.7097 39° Northeast  Level Estimated
Tue 09:50:00 AM 19.9070 110.7866 39° Northeast  Level Estimated
Tue 09:51:00 AM 19.9956 110.8635 39° Northeast  Level Estimated
Tue 09:52:00 AM 20.0842 110.9406 39° Northeast  Level Estimated
Tue 09:53:00 AM 20.1728 111.0178 39° Northeast  Level Estimated
Tue 09:54:00 AM 20.2613 111.0950 39° Northeast  Level Estimated
Tue 09:55:00 AM 20.3498 111.1723 39° Northeast  Level Estimated
Tue 09:56:00 AM 20.4382 111.2497 39° Northeast  Level Estimated
Tue 09:57:00 AM 20.5266 111.3272 39° Northeast  Level Estimated
Tue 09:58:00 AM 20.6150 111.4048 39° Northeast  Level Estimated
Tue 09:59:00 AM 20.7033 111.4825 39° Northeast  Level Estimated
Tue 10:00:00 AM 20.7916 111.5603 39° Northeast  Level Estimated
Tue 10:01:00 AM 20.8799 111.6381 39° Northeast  Level Estimated
Tue 10:02:00 AM 20.9681 111.7161 40° Northeast  Level Estimated
Tue 10:03:00 AM 21.0564 111.7941 40° Northeast  Level Estimated
Tue 10:04:00 AM 21.1445 111.8723 40° Northeast  Level Estimated
Tue 10:05:00 AM 21.2327 111.9505 40° Northeast  Level Estimated
Tue 10:06:00 AM 21.3207 112.0288 40° Northeast  Level Estimated
Tue 10:07:00 AM 21.4088 112.1072 40° Northeast  Level Estimated
Tue 10:08:00 AM 21.4968 112.1857 40° Northeast  Level Estimated
Tue 10:09:00 AM 21.5848 112.2644 40° Northeast  Level Estimated
Tue 10:10:00 AM 21.6728 112.3430 40° Northeast  Level Estimated
Tue 10:11:00 AM 21.7607 112.4219 40° Northeast  Level Estimated
Tue 10:12:00 AM 21.8485 112.5007 40° Northeast  Level Estimated
Tue 10:13:00 AM 21.9364 112.5797 40° Northeast  Level Estimated
Tue 10:14:00 AM 22.0242 112.6588 40° Northeast  Level Estimated
Tue 10:15:00 AM 22.1119 112.7380 40° Northeast  Level Estimated
Tue 10:16:00 AM 22.1996 112.8173 40° Northeast  Level Estimated
Tue 10:17:00 AM 22.2873 112.8967 40° Northeast  Level Estimated
Tue 10:18:00 AM 22.3750 112.9762 40° Northeast  Level Estimated
Tue 10:19:00 AM 22.4626 113.0558 40° Northeast  Level Estimated
Tue 10:20:00 AM 22.5501 113.1355 40° Northeast  Level Estimated
Tue 10:21:00 AM 22.6377 113.2153 40° Northeast  Level Estimated
Tue 10:22:00 AM 22.7251 113.2952 40° Northeast  Level Estimated
Tue 10:23:00 AM 22.8126 113.3751 40° Northeast  Level Estimated
Tue 10:24:00 AM 22.9000 113.4552 40° Northeast  Level Estimated
Tue 10:25:00 AM 22.9874 113.5354 40° Northeast  Level Estimated
Tue 10:26:00 AM 23.0747 113.6157 40° Northeast  Level Estimated
Tue 10:27:00 AM 23.1620 113.6962 40° Northeast  Level Estimated
Tue 10:28:00 AM 23.2492 113.7767 40° Northeast  Level Estimated
Tue 10:29:00 AM 23.3364 113.8573 40° Northeast  Level Estimated
Tue 10:30:00 AM 23.4236 113.9380 40° Northeast  Level Estimated
Tue 10:31:00 AM 23.5107 114.0188 40° Northeast  Level Estimated
Tue 10:32:00 AM 23.5978 114.0998 40° Northeast  Level Estimated
Tue 10:33:00 AM 23.6848 114.1808 40° Northeast  Level Estimated
Tue 10:34:00 AM 23.7718 114.2620 40° Northeast  Level Estimated
Tue 10:35:00 AM 23.8588 114.3432 41° Northeast  Level Estimated
Tue 10:36:00 AM 23.9457 114.4246 41° Northeast  Level Estimated
Tue 10:37:00 AM 24.0326 114.5061 41° Northeast  Level Estimated
Tue 10:38:00 AM 24.1194 114.5877 41° Northeast  Level Estimated
Tue 10:39:00 AM 24.2062 114.6694 41° Northeast  Level Estimated
Tue 10:40:00 AM 24.2929 114.7512 41° Northeast  Level Estimated
Tue 10:41:00 AM 24.3796 114.8331 41° Northeast  Level Estimated
Tue 10:42:00 AM 24.4662 114.9151 41° Northeast  Level Estimated
Tue 10:43:00 AM 24.5528 114.9973 41° Northeast  Level Estimated
Tue 10:44:00 AM 24.6394 115.0795 41° Northeast  Level Estimated
Tue 10:45:00 AM 24.7259 115.1619 41° Northeast  Level Estimated
Tue 10:46:00 AM 24.8124 115.2444 41° Northeast  Level Estimated
Tue 10:47:00 AM 24.8988 115.3270 41° Northeast  Level Estimated
Tue 10:48:00 AM 24.9852 115.4097 41° Northeast  Level Estimated
Tue 10:49:00 AM 25.0715 115.4926 41° Northeast  Level Estimated
Tue 10:50:00 AM 25.1578 115.5755 41° Northeast  Level Estimated
Tue 10:51:00 AM 25.2440 115.6586 41° Northeast  Level Estimated
Tue 10:52:00 AM 25.3302 115.7418 41° Northeast  Level Estimated
Tue 10:53:00 AM 25.4164 115.8251 41° Northeast  Level Estimated
Tue 10:54:00 AM 25.5025 115.9085 41° Northeast  Level Estimated
Tue 10:55:00 AM 25.5885 115.9921 41° Northeast  Level Estimated
Tue 10:56:00 AM 25.6745 116.0758 41° Northeast  Level Estimated
Tue 10:57:00 AM 25.7605 116.1595 41° Northeast  Level Estimated
Tue 10:58:00 AM 25.8464 116.2434 41° Northeast  Level Estimated
Tue 10:59:00 AM 25.9323 116.3275 41° Northeast  Level Estimated
Tue 11:00:00 AM 26.0181 116.4116 41° Northeast  Level Estimated
Tue 11:01:00 AM 26.1038 116.4959 41° Northeast  Level Estimated
Tue 11:02:00 AM 26.1896 116.5803 41° Northeast  Level Estimated
Tue 11:03:00 AM 26.2752 116.6648 41° Northeast  Level Estimated
Tue 11:04:00 AM 26.3608 116.7495 42° Northeast  Level Estimated
Tue 11:05:00 AM 26.4464 116.8343 42° Northeast  Level Estimated
Tue 11:06:00 AM 26.5319 116.9192 42° Northeast  Level Estimated
Tue 11:07:00 AM 26.6174 117.0042 42° Northeast  Level Estimated
Tue 11:08:00 AM 26.7028 117.0894 42° Northeast  Level Estimated
Tue 11:09:00 AM 26.7882 117.1746 42° Northeast  Level Estimated
Tue 11:10:00 AM 26.8735 117.2600 42° Northeast  Level Estimated
Tue 11:11:00 AM 26.9588 117.3456 42° Northeast  Level Estimated
Tue 11:12:00 AM 27.0440 117.4313 42° Northeast  Level Estimated
Tue 11:13:00 AM 27.1291 117.5171 42° Northeast  Level Estimated
Tue 11:14:00 AM 27.2142 117.6030 42° Northeast  Level Estimated
Tue 11:15:00 AM 27.2993 117.6890 42° Northeast  Level Estimated
Tue 11:16:00 AM 27.3843 117.7752 42° Northeast  Level Estimated
Tue 11:17:00 AM 27.4692 117.8616 42° Northeast  Level Estimated
Tue 11:18:00 AM 27.5541 117.9480 42° Northeast  Level Estimated
Tue 11:19:00 AM 27.6390 118.0346 42° Northeast  Level Estimated
Tue 11:20:00 AM 27.7238 118.1214 42° Northeast  Level Estimated
Tue 11:21:00 AM 27.8085 118.2082 42° Northeast  Level Estimated
Tue 11:22:00 AM 27.8932 118.2952 42° Northeast  Level Estimated
Tue 11:23:00 AM 27.9778 118.3823 42° Northeast  Level Estimated
Tue 11:24:00 AM 28.0624 118.4696 42° Northeast  Level Estimated
Tue 11:25:00 AM 28.1469 118.5570 42° Northeast  Level Estimated
Tue 11:26:00 AM 28.2313 118.6446 42° Northeast  Level Estimated
Tue 11:27:00 AM 28.3157 118.7323 42° Northeast  Level Estimated
Tue 11:28:00 AM 28.4001 118.8201 42° Northeast  Level Estimated
Tue 11:29:00 AM 28.4844 118.9080 43° Northeast  Level Estimated
Tue 11:30:00 AM 28.5686 118.9961 43° Northeast  Level Estimated
Tue 11:31:00 AM 28.6528 119.0844 43° Northeast  Level Estimated
Tue 11:32:00 AM 28.7369 119.1728 43° Northeast  Level Estimated
Tue 11:33:00 AM 28.8210 119.2613 43° Northeast  Level Estimated
Tue 11:34:00 AM 28.9050 119.3500 43° Northeast  Level Estimated
Tue 11:35:00 AM 28.9889 119.4388 43° Northeast  Level Estimated
Tue 11:36:00 AM 29.0728 119.5278 43° Northeast  Level Estimated
Tue 11:37:00 AM 29.1566 119.6169 43° Northeast  Level Estimated
Tue 11:38:00 AM 29.2404 119.7061 43° Northeast  Level Estimated
Tue 11:39:00 AM 29.3241 119.7955 43° Northeast  Level Estimated
Tue 11:40:00 AM 29.4078 119.8851 43° Northeast  Level Estimated
Tue 11:41:00 AM 29.4914 119.9748 43° Northeast  Level Estimated
Tue 11:42:00 AM 29.5749 120.0646 43° Northeast  Level Estimated
Tue 11:43:00 AM 29.6583 120.1546 43° Northeast  Level Estimated
Tue 11:44:00 AM 29.7418 120.2447 43° Northeast  Level Estimated
Tue 11:45:00 AM 29.8251 120.3350 43° Northeast  Level Estimated
Tue 11:46:00 AM 29.9084 120.4255 43° Northeast  Level Estimated
Tue 11:47:00 AM 29.9916 120.5161 43° Northeast  Level Estimated
Tue 11:48:00 AM 30.0748 120.6068 43° Northeast  Level Estimated
Tue 11:49:00 AM 30.1532 120.6925 43° Northeast  Level Estimated
Tue 11:50:00 AM 30.2300 120.7768 43° Northeast  Level Estimated
Tue 11:51:00 AM 30.3068 120.8611 43° Northeast  Level Estimated
Tue 11:52:00 AM 30.3897 120.9525 44° Northeast  Level Estimated
Tue 11:53:00 AM 30.4726 121.0440 44° Northeast  Level Estimated
Tue 11:54:00 AM 30.5554 121.1356 44° Northeast  Level Estimated
Tue 11:55:00 AM 30.6381 121.2274 44° Northeast  Level Estimated
Tue 11:56:00 AM 30.7208 121.3193 44° Northeast  Level Estimated
Tue 11:57:00 AM 30.7972 121.4046 44° Northeast  Level Estimated
Tue 11:58:00 AM 30.8736 121.4899 44° Northeast  Level Estimated
Tue 11:59:00 AM 30.9499 121.5754 44° Northeast  Level Estimated
Tue 12:00:00 PM 31.0262 121.6611 44° Northeast  Level Estimated
Tue 12:01:00 PM 31.1024 121.7469 44° Northeast  Level Estimated
Tue 12:02:00 PM 31.1428 121.7924 44° Northeast  Level Estimated
Tue 12:03:00 PM 31.1428 121.7924 221° Southwest  Level Estimated
Tue 12:04:00 PM 31.1428 121.7924 221° Southwest  Level Estimated
Tue 12:05:00 PM 31.1428 121.7924 221° Southwest  Level Estimated
Tue 12:06:00 PM 31.1428 121.7924 221° Southwest  Level Estimated
Tue 12:07:00 PM 31.1428 121.7924 221° Southwest  Level Estimated
Tue 12:08:00 PM 31.1428 121.7924 221° Southwest  Level Estimated
Tue 12:09:00 PM 31.1428 121.7924 221° Southwest  Level Estimated
Tue 12:10:00 PM 31.1428 121.7924 221° Southwest  Level Estimated
Tue 12:11:00 PM 31.1428 121.7924 221° Southwest  Level Estimated
Tue 12:12:00 PM 31.1428 121.7924 221° Southwest  Level Estimated
Tue 12:13:00 PM 31.1428 121.7924 221° Southwest  Level Estimated
Tue 12:14:00 PM 31.1428 121.7924 221° Southwest  Level Estimated
Tue 12:15:00 PM 31.1428 121.7924 221° Southwest  Level Estimated
Tue 12:16:00 PM 31.1428 121.7924 221° Southwest  Level Estimated
Tue 12:17:00 PM 31.1428 121.7924 221° Southwest  Level Estimated
Tue 12:18:00 PM 31.1428 121.7924 221° Southwest  Level Estimated
Tue 12:19:00 PM 31.1428 121.7924 221° Southwest  Level Estimated
Tue 12:20:00 PM 31.1428 121.7924 221° Southwest  Level Estimated

Login

Don't have an account? Register now (free) for customized features, flight alerts, and more!